Time;durP1;ratioP1;P1;durP2;ratioP2;P2;SDS_P1;SDS_P2;PMS_P1;PMS_P2;Temp;Humidity;BMP_temperature;BMP_pressure;BME280_temperature;BME280_humidity;BME280_pressure;Samples;Min_cycle;Max_cycle;Signal;HPM_P1;HPM_P2
2023/04/29 00:00:29;;;;;;;;;;;;;;;7.36;55.13;100463.16;104215;278;93475;-55
2023/04/29 00:03:19;;;;;;;;;;;;;;;7.36;54.99;100465.64;104112;278;97708;-54
2023/04/29 00:05:51;;;;;;;;;;;;;;;7.32;55.26;100463.58;104595;277;119085;-55
2023/04/29 00:08:24;;;;;;;;;;;;;;;7.31;55.16;100463.76;104566;278;103642;-53
2023/04/29 00:10:56;;;;;;;;;;;;;;;7.28;55.25;100462.20;104216;270;114611;-55
2023/04/29 00:13:28;;;;;;;;;;;;;;;7.28;55.44;100461.01;104560;277;91043;-55
2023/04/29 00:16:01;;;;;;;;;;;;;;;7.28;55.63;100461.34;104242;278;96625;-53
2023/04/29 00:18:33;;;;;;;;;;;;;;;7.25;55.54;100455.77;104554;278;118028;-53
2023/04/29 00:21:06;;;;;;;;;;;;;;;7.23;55.61;100452.65;104581;278;104043;-54
2023/04/29 00:23:38;;;;;;;;;;;;;;;7.21;55.83;100455.27;104548;278;112990;-53
2023/04/29 00:26:10;;;;;;;;;;;;;;;7.22;55.85;100455.00;104218;278;91726;-55
2023/04/29 00:28:42;;;;;;;;;;;;;;;7.23;56.06;100454.89;104226;278;98387;-56
2023/04/29 00:31:15;;;;;;;;;;;;;;;7.24;55.93;100449.69;104201;278;119939;-54
2023/04/29 00:33:47;;;;;;;;;;;;;;;7.23;55.85;100448.88;104558;278;104530;-55
2023/04/29 00:36:19;;;;;;;;;;;;;;;7.23;55.87;100445.28;104182;270;114474;-54
2023/04/29 00:38:52;;;;;;;;;;;;;;;7.24;56.09;100447.00;104555;278;92147;-54
2023/04/29 00:41:25;;;;;;;;;;;;;;;7.24;55.88;100443.35;104248;278;95749;-52
2023/04/29 00:43:58;;;;;;;;;;;;;;;7.22;55.97;100445.70;104241;277;120233;-53
2023/04/29 00:46:30;;;;;;;;;;;;;;;7.21;55.82;100443.50;103983;278;104016;-54
2023/04/29 00:49:03;;;;;;;;;;;;;;;7.19;55.91;100441.20;104114;277;113682;-53
2023/04/29 00:51:36;;;;;;;;;;;;;;;7.19;55.93;100440.02;104667;277;92240;-53
2023/04/29 00:54:11;;;;;;;;;;;;;;;7.19;56.08;100437.87;104170;277;98157;-54
2023/04/29 00:56:45;;;;;;;;;;;;;;;7.19;56.08;100439.62;104154;277;121098;-56
2023/04/29 00:59:18;;;;;;;;;;;;;;;7.19;56.29;100435.72;103965;279;104726;-56
2023/04/29 01:01:51;;;;;;;;;;;;;;;7.20;56.26;100433.02;104137;277;112304;-56
2023/04/29 01:04:23;;;;;;;;;;;;;;;7.21;56.13;100434.04;104157;277;91679;-56
2023/04/29 01:07:01;;;;;;;;;;;;;;;7.19;56.06;100428.89;104611;277;98186;-53
2023/04/29 01:09:44;;;;;;;;;;;;;;;7.17;56.14;100430.75;104637;278;120423;-54
2023/04/29 01:12:21;;;;;;;;;;;;;;;7.16;56.23;100435.85;104624;278;105047;-55
2023/04/29 01:15:04;;;;;;;;;;;;;;;7.16;56.48;100433.46;104095;278;114393;-53
2023/04/29 01:17:41;;;;;;;;;;;;;;;7.15;56.51;100431.25;104114;277;91389;-53
2023/04/29 01:20:13;;;;;;;;;;;;;;;7.14;56.33;100433.70;104115;278;97465;-56
2023/04/29 01:22:46;;;;;;;;;;;;;;;7.14;56.42;100431.55;104110;277;120231;-56
2023/04/29 01:25:18;;;;;;;;;;;;;;;7.13;56.57;100430.91;104120;277;105085;-55
2023/04/29 01:27:56;;;;;;;;;;;;;;;7.14;56.45;100429.73;103672;279;535852;-55
2023/04/29 01:30:34;;;;;;;;;;;;;;;7.17;56.60;100428.89;104020;278;92508;-56
2023/04/29 01:33:13;;;;;;;;;;;;;;;7.20;56.48;100429.63;104135;277;97733;-57
2023/04/29 01:35:59;;;;;;;;;;;;;;;7.20;56.39;100430.13;104596;277;119924;-56
2023/04/29 01:38:38;;;;;;;;;;;;;;;7.21;56.38;100428.48;103935;277;105407;-56
2023/04/29 01:41:15;;;;;;;;;;;;;;;7.21;56.27;100430.98;104063;277;114256;-55
2023/04/29 01:43:54;;;;;;;;;;;;;;;7.21;56.52;100427.59;103921;279;91507;-55
2023/04/29 01:46:28;;;;;;;;;;;;;;;7.22;56.36;100429.40;104109;278;96453;-56
2023/04/29 01:49:00;;;;;;;;;;;;;;;7.22;56.37;100428.50;104114;278;119280;-56
2023/04/29 01:51:33;;;;;;;;;;;;;;;7.22;56.50;100429.58;103958;279;105303;-56
2023/04/29 01:54:06;;;;;;;;;;;;;;;7.22;56.49;100428.70;104075;279;114599;-56
2023/04/29 01:56:38;;;;;;;;;;;;;;;7.20;56.63;100428.31;104110;278;94325;-54
2023/04/29 01:59:10;;;;;;;;;;;;;;;7.21;56.60;100430.11;104141;279;97208;-54
2023/04/29 02:01:43;;;;;;;;;;;;;;;7.20;56.43;100427.02;104079;278;120139;-53
2023/04/29 02:04:15;;;;;;;;;;;;;;;7.19;56.54;100427.99;104124;278;105998;-53
2023/04/29 02:06:47;;;;;;;;;;;;;;;7.19;56.61;100424.27;104507;279;114664;-55
2023/04/29 02:09:20;;;;;;;;;;;;;;;7.18;56.64;100424.36;104513;278;93869;-56
2023/04/29 02:11:53;;;;;;;;;;;;;;;7.18;56.56;100423.83;104527;278;97131;-54
2023/04/29 02:14:25;;;;;;;;;;;;;;;7.17;56.61;100422.11;104094;279;121306;-54
2023/04/29 02:16:58;;;;;;;;;;;;;;;7.16;56.54;100417.73;104091;278;105937;-57
2023/04/29 02:19:30;;;;;;;;;;;;;;;7.15;56.70;100417.85;104503;278;114368;-54
2023/04/29 02:22:02;;;;;;;;;;;;;;;7.15;56.59;100416.94;104100;278;92017;-54
2023/04/29 02:24:35;;;;;;;;;;;;;;;7.15;56.77;100416.60;104098;278;97104;-54
2023/04/29 02:27:07;;;;;;;;;;;;;;;7.14;56.74;100414.35;104496;279;119921;-54
2023/04/29 02:29:39;;;;;;;;;;;;;;;7.14;56.66;100412.18;103958;279;105040;-54
2023/04/29 02:32:14;;;;;;;;;;;;;;;7.15;56.61;100412.10;104104;278;114147;-54
2023/04/29 02:34:46;;;;;;;;;;;;;;;7.15;56.51;100411.94;104529;279;94629;-56
2023/04/29 02:37:18;;;;;;;;;;;;;;;7.14;56.67;100408.62;104097;278;96621;-56
2023/04/29 02:39:51;;;;;;;;;;;;;;;7.13;56.68;100407.98;104539;279;120577;-55
2023/04/29 02:42:23;;;;;;;;;;;;;;;7.13;56.67;100409.60;104527;267;103953;-55
2023/04/29 02:44:56;;;;;;;;;;;;;;;7.13;56.72;100407.08;104113;277;112018;-54
2023/04/29 02:47:29;;;;;;;;;;;;;;;7.13;56.71;100409.25;104117;277;94051;-54
2023/04/29 02:50:01;;;;;;;;;;;;;;;7.14;56.74;100407.55;104152;277;95765;-57
2023/04/29 02:52:33;;;;;;;;;;;;;;;7.14;56.68;100405.77;103952;277;121093;-57
2023/04/29 02:55:06;;;;;;;;;;;;;;;7.12;56.77;100409.71;104133;277;103586;-55
2023/04/29 02:57:40;;;;;;;;;;;;;;;7.12;56.63;100407.43;103902;278;117085;-55
2023/04/29 03:00:13;;;;;;;;;;;;;;;7.11;56.87;100406.23;104116;266;92693;-55
2023/04/29 03:02:45;;;;;;;;;;;;;;;7.11;56.90;100407.51;104146;277;97376;-54
2023/04/29 03:05:18;;;;;;;;;;;;;;;7.12;56.95;100403.13;104599;277;120199;-54
2023/04/29 03:07:50;;;;;;;;;;;;;;;7.11;56.90;100402.00;104151;277;106236;-53
2023/04/29 03:10:22;;;;;;;;;;;;;;;7.12;56.83;100398.77;104117;277;114632;-54
2023/04/29 03:12:54;;;;;;;;;;;;;;;7.12;57.04;100402.90;104611;277;92533;-54
2023/04/29 03:15:27;;;;;;;;;;;;;;;7.13;56.84;100399.40;104116;277;97110;-54
2023/04/29 03:18:00;;;;;;;;;;;;;;;7.13;56.93;100400.27;104133;277;120990;-54
2023/04/29 03:20:32;;;;;;;;;;;;;;;7.15;56.78;100398.51;104123;277;104464;-56
2023/04/29 03:23:05;;;;;;;;;;;;;;;7.15;56.83;100396.70;104111;278;114880;-57
2023/04/29 03:25:38;;;;;;;;;;;;;;;7.15;56.89;100400.08;104095;277;92403;-54
2023/04/29 03:28:10;;;;;;;;;;;;;;;7.16;57.13;100399.48;104162;277;97737;-54
2023/04/29 03:30:43;;;;;;;;;;;;;;;7.17;56.90;100398.08;104155;277;119235;-53
2023/04/29 03:33:15;;;;;;;;;;;;;;;7.18;56.82;100397.33;104134;277;105915;-53
2023/04/29 03:35:48;;;;;;;;;;;;;;;7.18;56.87;100398.84;103948;279;112891;-55
2023/04/29 03:38:20;;;;;;;;;;;;;;;7.19;57.00;100395.19;104137;277;92370;-55
2023/04/29 03:40:53;;;;;;;;;;;;;;;7.21;57.01;100393.04;104003;278;97430;-53
2023/04/29 03:43:25;;;;;;;;;;;;;;;7.23;57.05;100391.48;104124;277;118882;-54
2023/04/29 03:45:58;;;;;;;;;;;;;;;7.25;57.03;100398.14;104143;277;105624;-55
2023/04/29 03:48:30;;;;;;;;;;;;;;;7.26;57.00;100398.30;104107;277;114426;-55
2023/04/29 03:51:02;;;;;;;;;;;;;;;7.29;56.86;100395.86;104146;277;91670;-55
2023/04/29 03:53:36;;;;;;;;;;;;;;;7.31;56.95;100398.30;104164;277;95640;-54
2023/04/29 03:56:10;;;;;;;;;;;;;;;7.35;56.83;100395.34;104600;277;120203;-52
2023/04/29 03:58:43;;;;;;;;;;;;;;;7.40;56.79;100394.95;104147;277;104229;-53
2023/04/29 04:01:16;;;;;;;;;;;;;;;7.48;56.75;100394.20;104153;278;113418;-54
2023/04/29 04:03:49;;;;;;;;;;;;;;;7.58;56.84;100396.73;104644;277;93457;-54
2023/04/29 04:06:22;;;;;;;;;;;;;;;7.67;56.52;100399.31;104174;277;95765;-56
2023/04/29 04:08:54;;;;;;;;;;;;;;;7.66;56.43;100394.38;104639;277;120339;-56
2023/04/29 04:11:27;;;;;;;;;;;;;;;7.70;56.72;100395.37;104171;277;105499;-56
2023/04/29 04:14:00;;;;;;;;;;;;;;;7.80;56.48;100396.30;104634;277;114414;-57
2023/04/29 04:16:32;;;;;;;;;;;;;;;7.88;56.45;100391.57;104137;277;93844;-56
2023/04/29 04:19:04;;;;;;;;;;;;;;;7.99;56.21;100393.31;104142;277;96866;-56
2023/04/29 04:21:37;;;;;;;;;;;;;;;8.17;56.11;100393.95;104176;277;120277;-54
2023/04/29 04:24:10;;;;;;;;;;;;;;;8.32;56.00;100387.06;104037;277;104462;-57
2023/04/29 04:26:42;;;;;;;;;;;;;;;8.48;55.85;100391.30;104068;278;114056;-54
2023/04/29 04:29:15;;;;;;;;;;;;;;;8.79;55.54;100389.39;104182;277;91867;-54
2023/04/29 04:31:47;;;;;;;;;;;;;;;9.28;54.84;100385.69;104234;277;96038;-54
2023/04/29 04:34:20;;;;;;;;;;;;;;;9.80;54.43;100380.71;104192;277;119963;-54
2023/04/29 04:36:53;;;;;;;;;;;;;;;10.66;53.47;100374.48;104214;277;105064;-57
2023/04/29 04:39:25;;;;;;;;;;;;;;;11.52;52.05;100371.11;104600;277;112999;-56
2023/04/29 04:41:58;;;;;;;;;;;;;;;12.12;51.09;100371.04;104169;277;95347;-56
2023/04/29 04:44:31;;;;;;;;;;;;;;;12.83;49.64;100375.27;104134;277;97510;-54
2023/04/29 04:47:05;;;;;;;;;;;;;;;13.58;49.23;100368.70;104159;277;121471;-55
2023/04/29 04:49:37;;;;;;;;;;;;;;;14.03;48.12;100362.21;104061;278;104365;-53
2023/04/29 04:52:10;;;;;;;;;;;;;;;14.48;46.81;100364.93;104119;277;112201;-54
2023/04/29 04:54:45;;;;;;;;;;;;;;;14.66;45.63;100361.10;104149;277;93280;-55
2023/04/29 04:57:17;;;;;;;;;;;;;;;14.82;45.14;100360.59;104173;278;95666;-56
2023/04/29 04:59:50;;;;;;;;;;;;;;;14.77;44.32;100357.91;104205;277;119814;-56
2023/04/29 05:02:22;;;;;;;;;;;;;;;14.44;44.09;100358.76;104617;277;105698;-57
2023/04/29 05:04:54;;;;;;;;;;;;;;;13.90;44.36;100361.27;104191;274;114469;-55
2023/04/29 05:07:26;;;;;;;;;;;;;;;13.21;44.36;100368.11;104198;278;94179;-55
2023/04/29 05:09:58;;;;;;;;;;;;;;;12.88;45.21;100369.05;104174;277;97644;-55
2023/04/29 05:12:31;;;;;;;;;;;;;;;12.62;45.54;100368.36;104171;277;119751;-55
2023/04/29 05:15:04;;;;;;;;;;;;;;;12.57;45.47;100367.45;104172;277;105849;-57
2023/04/29 05:17:36;;;;;;;;;;;;;;;12.60;45.28;100367.92;104162;278;114454;-57
2023/04/29 05:20:11;;;;;;;;;;;;;;;12.47;45.41;100365.95;104148;277;94701;-53
2023/04/29 05:22:44;;;;;;;;;;;;;;;12.34;45.61;100363.78;104164;277;96860;-53
2023/04/29 05:25:16;;;;;;;;;;;;;;;12.35;45.67;100363.20;104166;277;118765;-54
2023/04/29 05:27:49;;;;;;;;;;;;;;;12.32;45.58;100364.52;104627;277;104578;-57
2023/04/29 05:30:21;;;;;;;;;;;;;;;12.40;45.71;100362.05;104146;277;114435;-58
2023/04/29 05:32:54;;;;;;;;;;;;;;;12.95;45.65;100367.48;104598;277;94184;-56
2023/04/29 05:35:26;;;;;;;;;;;;;;;13.44;45.07;100362.27;104132;277;96957;-53
2023/04/29 05:37:58;;;;;;;;;;;;;;;14.80;44.88;100357.25;103939;279;120545;-54
2023/04/29 05:40:30;;;;;;;;;;;;;;;16.58;42.63;100354.17;104134;277;104659;-58
2023/04/29 05:43:03;;;;;;;;;;;;;;;17.20;42.27;100355.77;104605;278;115117;-57
2023/04/29 05:45:36;;;;;;;;;;;;;;;18.14;41.56;100349.23;104133;278;93777;-61
2023/04/29 05:48:09;;;;;;;;;;;;;;;19.09;39.93;100347.53;104122;277;96800;-57
2023/04/29 05:50:42;;;;;;;;;;;;;;;19.52;37.68;100352.39;104122;277;120054;-54
2023/04/29 05:53:14;;;;;;;;;;;;;;;19.94;37.22;100350.02;104134;277;105710;-54
2023/04/29 05:55:47;;;;;;;;;;;;;;;20.34;36.04;100344.58;104093;277;113476;-57
2023/04/29 05:58:19;;;;;;;;;;;;;;;20.81;36.69;100350.65;104144;277;94751;-58
2023/04/29 06:00:51;;;;;;;;;;;;;;;21.05;35.92;100353.30;104127;278;97205;-53
2023/04/29 06:03:24;;;;;;;;;;;;;;;21.16;34.75;100350.40;103921;277;120801;-53
2023/04/29 06:05:57;;;;;;;;;;;;;;;21.73;34.33;100349.20;104617;277;106941;-53
2023/04/29 06:08:29;;;;;;;;;;;;;;;22.10;33.12;100346.68;104112;277;114690;-54
2023/04/29 06:11:02;;;;;;;;;;;;;;;22.69;33.45;100344.77;104098;277;93343;-57
2023/04/29 06:13:35;;;;;;;;;;;;;;;23.42;32.99;100346.67;104168;277;96930;-57
2023/04/29 06:16:07;;;;;;;;;;;;;;;23.98;31.84;100343.17;104611;277;119600;-54
2023/04/29 06:18:40;;;;;;;;;;;;;;;24.27;31.40;100340.76;104117;277;105939;-55
2023/04/29 06:21:12;;;;;;;;;;;;;;;24.23;30.51;100342.31;104548;277;114518;-56
2023/04/29 06:23:45;;;;;;;;;;;;;;;24.06;29.13;100337.02;104139;277;93482;-57
2023/04/29 06:26:17;;;;;;;;;;;;;;;24.13;29.67;100340.62;104597;277;97484;-54
2023/04/29 06:28:50;;;;;;;;;;;;;;;24.84;30.03;100336.77;104143;277;119619;-55
2023/04/29 06:31:22;;;;;;;;;;;;;;;25.51;29.62;100341.39;104125;277;104860;-54
2023/04/29 06:33:55;;;;;;;;;;;;;;;26.10;28.87;100335.83;104110;278;114775;-55
2023/04/29 06:36:28;;;;;;;;;;;;;;;26.28;26.85;100340.40;104159;277;94493;-54
2023/04/29 06:39:03;;;;;;;;;;;;;;;26.19;27.22;100335.34;104141;277;97495;-62
2023/04/29 06:41:39;;;;;;;;;;;;;;;26.62;26.48;100335.13;104097;277;121259;-61
2023/04/29 06:44:15;;;;;;;;;;;;;;;26.20;26.75;100340.88;104109;277;106233;-64
2023/04/29 06:46:48;;;;;;;;;;;;;;;26.86;26.72;100329.83;104573;277;114107;-65
2023/04/29 06:49:21;;;;;;;;;;;;;;;26.87;25.71;100327.27;104125;277;94483;-64
2023/04/29 06:51:55;;;;;;;;;;;;;;;26.70;25.53;100330.86;104131;278;96564;-59
2023/04/29 06:54:29;;;;;;;;;;;;;;;26.07;25.69;100336.57;104112;277;119083;-59
2023/04/29 06:57:04;;;;;;;;;;;;;;;25.01;25.82;100334.02;104117;278;105034;-57
2023/04/29 06:59:37;;;;;;;;;;;;;;;23.76;26.24;100339.65;104130;277;114705;-55
2023/04/29 07:02:10;;;;;;;;;;;;;;;22.36;27.06;100337.08;104123;278;94735;-58
2023/04/29 07:04:43;;;;;;;;;;;;;;;22.29;27.66;100338.20;104114;282;97046;-55
2023/04/29 07:07:15;;;;;;;;;;;;;;;22.41;27.59;100330.39;104127;278;120802;-55
2023/04/29 07:09:50;;;;;;;;;;;;;;;22.62;27.78;100330.65;104177;277;105584;-55
2023/04/29 07:12:22;;;;;;;;;;;;;;;22.82;27.80;100326.54;104137;278;114783;-55
2023/04/29 07:14:54;;;;;;;;;;;;;;;23.43;27.32;100325.23;104119;278;94031;-55
2023/04/29 07:17:29;;;;;;;;;;;;;;;24.20;28.01;100321.91;104151;277;97732;-55
2023/04/29 07:20:02;;;;;;;;;;;;;;;25.07;27.14;100318.14;104603;282;120568;-55
2023/04/29 07:22:35;;;;;;;;;;;;;;;25.59;27.14;100317.59;104603;277;103510;-55
2023/04/29 07:25:07;;;;;;;;;;;;;;;25.70;25.88;100316.65;104138;277;114522;-57
2023/04/29 07:27:40;;;;;;;;;;;;;;;25.23;25.52;100321.17;104559;277;94051;-57
2023/04/29 07:30:13;;;;;;;;;;;;;;;25.27;25.67;100316.08;104103;277;96898;-66
2023/04/29 07:32:45;;;;;;;;;;;;;;;25.47;26.09;100317.91;104092;277;120179;-68
2023/04/29 07:35:18;;;;;;;;;;;;;;;25.52;26.40;100316.77;104139;277;105620;-64
2023/04/29 07:37:50;;;;;;;;;;;;;;;25.47;26.33;100316.63;104114;277;113755;-55
2023/04/29 07:40:23;;;;;;;;;;;;;;;25.76;26.32;100310.73;104118;277;94377;-54
2023/04/29 07:42:55;;;;;;;;;;;;;;;25.84;25.82;100312.55;103978;278;97313;-59
2023/04/29 07:45:29;;;;;;;;;;;;;;;25.80;25.63;100314.91;104115;277;120483;-54
2023/04/29 07:48:01;;;;;;;;;;;;;;;25.55;25.27;100313.41;104130;277;105490;-59
2023/04/29 07:50:36;;;;;;;;;;;;;;;25.60;25.53;100309.89;103998;279;114999;-57
2023/04/29 07:53:10;;;;;;;;;;;;;;;26.07;25.98;100306.60;104607;277;92021;-58
2023/04/29 07:55:43;;;;;;;;;;;;;;;26.74;24.93;100310.36;104147;277;97838;-56
2023/04/29 07:58:18;;;;;;;;;;;;;;;26.69;24.43;100311.92;104125;277;120781;-56
2023/04/29 08:00:51;;;;;;;;;;;;;;;26.86;24.78;100307.04;104147;277;106757;-57
2023/04/29 08:03:24;;;;;;;;;;;;;;;27.25;24.49;100309.68;104152;277;112328;-58
2023/04/29 08:06:02;;;;;;;;;;;;;;;27.18;24.32;100307.96;104135;277;94207;-57
2023/04/29 08:08:39;;;;;;;;;;;;;;;27.76;23.84;100305.06;103966;277;98653;-54
2023/04/29 08:11:17;;;;;;;;;;;;;;;27.93;23.73;100308.24;104140;277;120633;-55
2023/04/29 08:13:49;;;;;;;;;;;;;;;28.04;22.79;100306.00;104134;277;105135;-55
2023/04/29 08:16:24;;;;;;;;;;;;;;;27.22;22.49;100311.23;104150;277;113058;-57
2023/04/29 08:18:58;;;;;;;;;;;;;;;27.09;22.94;100313.65;104141;277;94363;-57
2023/04/29 08:21:31;;;;;;;;;;;;;;;27.12;23.31;100317.43;104171;277;96373;-56
2023/04/29 08:24:04;;;;;;;;;;;;;;;26.74;23.42;100310.91;104135;277;120656;-56
2023/04/29 08:26:36;;;;;;;;;;;;;;;26.98;23.02;100311.98;104644;277;104268;-56
2023/04/29 08:29:08;;;;;;;;;;;;;;;26.87;23.16;100313.08;104167;277;115395;-57
2023/04/29 08:31:40;;;;;;;;;;;;;;;27.03;22.92;100308.97;104596;277;94852;-57
2023/04/29 08:34:12;;;;;;;;;;;;;;;27.23;23.16;100310.27;104179;277;97548;-57
2023/04/29 08:36:45;;;;;;;;;;;;;;;27.27;23.28;100302.98;104160;277;119500;-58
2023/04/29 08:39:17;;;;;;;;;;;;;;;27.81;23.41;100304.41;104592;277;105628;-58
2023/04/29 08:41:50;;;;;;;;;;;;;;;27.66;23.41;100304.41;104624;277;113810;-57
2023/04/29 08:44:23;;;;;;;;;;;;;;;27.50;23.03;100301.97;104113;277;95170;-57
2023/04/29 08:46:55;;;;;;;;;;;;;;;26.78;22.58;100296.15;104620;277;97579;-57
2023/04/29 08:49:28;;;;;;;;;;;;;;;26.23;22.76;100296.30;104100;277;120417;-57
2023/04/29 08:52:01;;;;;;;;;;;;;;;25.47;23.16;100297.98;104099;277;105575;-58
2023/04/29 08:54:35;;;;;;;;;;;;;;;25.17;23.62;100296.55;104595;278;114912;-56
2023/04/29 08:57:07;;;;;;;;;;;;;;;25.48;23.98;100297.48;104106;277;94342;-57
2023/04/29 08:59:39;;;;;;;;;;;;;;;25.82;24.05;100293.52;104634;277;96895;-57
2023/04/29 09:02:15;;;;;;;;;;;;;;;26.11;24.07;100292.78;104108;277;119336;-57
2023/04/29 09:04:53;;;;;;;;;;;;;;;26.22;23.72;100287.90;104120;277;104790;-56
2023/04/29 09:07:26;;;;;;;;;;;;;;;25.75;23.62;100288.77;104593;277;115539;-56
2023/04/29 09:09:58;;;;;;;;;;;;;;;25.14;23.89;100295.35;104132;277;93749;-58
2023/04/29 09:12:30;;;;;;;;;;;;;;;24.31;24.39;100294.45;104181;277;96721;-58
2023/04/29 09:15:03;;;;;;;;;;;;;;;23.59;24.98;100293.95;104144;277;121590;-55
2023/04/29 09:17:45;;;;;;;;;;;;;;;23.17;25.57;100291.71;104142;277;104404;-54
2023/04/29 09:20:30;;;;;;;;;;;;;;;23.05;26.06;100295.19;104113;277;114938;-57
2023/04/29 09:23:04;;;;;;;;;;;;;;;23.19;26.49;100292.43;104615;277;93269;-58
2023/04/29 09:25:36;;;;;;;;;;;;;;;23.15;26.17;100290.17;104087;277;98143;-55
2023/04/29 09:28:17;;;;;;;;;;;;;;;22.83;26.58;100288.20;103533;277;751441;-55
2023/04/29 09:30:49;;;;;;;;;;;;;;;22.50;26.58;100290.73;104156;277;105237;-55
2023/04/29 09:33:21;;;;;;;;;;;;;;;22.16;27.05;100287.55;104598;277;114646;-54
2023/04/29 09:35:54;;;;;;;;;;;;;;;22.19;27.30;100285.14;103954;278;94836;-56
2023/04/29 09:38:26;;;;;;;;;;;;;;;21.86;27.22;100290.02;104164;277;96300;-56
2023/04/29 09:40:58;;;;;;;;;;;;;;;21.69;27.68;100286.02;104116;277;120725;-55
2023/04/29 09:43:30;;;;;;;;;;;;;;;21.70;27.91;100283.19;104132;277;105604;-54
2023/04/29 09:46:02;;;;;;;;;;;;;;;21.38;28.15;100286.46;104141;277;115230;-54
2023/04/29 09:48:35;;;;;;;;;;;;;;;20.74;28.70;100286.98;104117;277;94985;-55
2023/04/29 09:51:07;;;;;;;;;;;;;;;20.14;29.11;100284.33;104149;277;98361;-55
2023/04/29 09:53:39;;;;;;;;;;;;;;;19.91;29.63;100280.17;104598;277;120806;-55
2023/04/29 09:56:11;;;;;;;;;;;;;;;20.06;29.76;100285.27;104122;277;105640;-58
2023/04/29 09:58:44;;;;;;;;;;;;;;;20.26;29.95;100278.17;104559;277;113576;-58
2023/04/29 10:01:19;;;;;;;;;;;;;;;20.46;29.76;100276.23;104105;277;93251;-56
2023/04/29 10:03:53;;;;;;;;;;;;;;;20.41;29.88;100279.42;104140;277;96171;-56
2023/04/29 10:06:25;;;;;;;;;;;;;;;20.51;29.96;100267.73;104610;277;119587;-54
2023/04/29 10:08:58;;;;;;;;;;;;;;;20.75;29.94;100271.68;104137;277;106094;-54
2023/04/29 10:11:30;;;;;;;;;;;;;;;20.72;30.05;100267.09;104080;277;114373;-54
2023/04/29 10:14:03;;;;;;;;;;;;;;;20.81;30.04;100265.36;104077;277;93799;-54
2023/04/29 10:16:40;;;;;;;;;;;;;;;20.68;30.29;100258.92;104631;278;97093;-55
2023/04/29 10:19:15;;;;;;;;;;;;;;;20.68;30.15;100253.48;104115;277;119831;-54
2023/04/29 10:21:48;;;;;;;;;;;;;;;20.52;30.50;100256.87;104136;277;105253;-56
2023/04/29 10:24:22;;;;;;;;;;;;;;;20.57;30.20;100259.14;104078;277;114287;-56
2023/04/29 10:26:55;;;;;;;;;;;;;;;20.52;30.34;100252.81;104593;277;94683;-54
2023/04/29 10:29:30;;;;;;;;;;;;;;;20.44;30.37;100248.89;104606;277;97555;-56
2023/04/29 10:32:03;;;;;;;;;;;;;;;20.43;30.64;100245.26;104094;277;121403;-56
2023/04/29 10:34:37;;;;;;;;;;;;;;;20.43;30.57;100250.73;104090;277;105780;-56
2023/04/29 10:37:11;;;;;;;;;;;;;;;20.51;30.73;100240.80;104069;277;114198;-57
2023/04/29 10:39:50;;;;;;;;;;;;;;;20.52;30.84;100248.10;104104;277;94497;-55
2023/04/29 10:42:38;;;;;;;;;;;;;;;20.25;30.61;100241.24;104103;278;98230;-55
2023/04/29 10:45:25;;;;;;;;;;;;;;;19.99;30.84;100237.23;104087;278;120540;-58
2023/04/29 10:48:12;;;;;;;;;;;;;;;19.91;31.26;100231.31;104088;279;106234;-58
2023/04/29 10:51:04;;;;;;;;;;;;;;;20.00;31.31;100226.93;104086;267;114261;-56
2023/04/29 10:53:37;;;;;;;;;;;;;;;20.00;31.64;100230.33;104465;278;93138;-57
2023/04/29 10:56:11;;;;;;;;;;;;;;;20.06;31.74;100227.50;104101;279;97951;-58
2023/04/29 10:58:47;;;;;;;;;;;;;;;20.03;31.95;100229.05;104083;278;120031;-59
2023/04/29 11:01:39;;;;;;;;;;;;;;;20.07;32.15;100232.56;104515;278;104631;-58
2023/04/29 11:04:11;;;;;;;;;;;;;;;20.19;31.90;100228.20;104506;279;114012;-59
2023/04/29 11:06:56;;;;;;;;;;;;;;;20.43;31.97;100227.81;104085;279;92657;-55
2023/04/29 11:09:32;;;;;;;;;;;;;;;20.65;31.94;100226.55;104085;278;96403;-58
2023/04/29 11:12:09;;;;;;;;;;;;;;;20.70;31.92;100225.50;104077;279;119990;-58
2023/04/29 11:14:50;;;;;;;;;;;;;;;20.51;31.63;100223.17;104081;279;104639;-58
2023/04/29 11:17:24;;;;;;;;;;;;;;;20.35;31.65;100220.73;104082;278;113984;-57
2023/04/29 11:19:58;;;;;;;;;;;;;;;20.25;32.24;100218.69;104072;278;94788;-56
2023/04/29 11:22:32;;;;;;;;;;;;;;;20.19;31.99;100222.45;104494;278;96912;-57
2023/04/29 11:25:06;;;;;;;;;;;;;;;19.97;32.07;100214.39;104091;278;121104;-58
2023/04/29 11:27:40;;;;;;;;;;;;;;;19.68;32.32;100205.02;104119;278;105524;-58
2023/04/29 11:30:13;;;;;;;;;;;;;;;19.59;32.58;100207.90;104530;278;114497;-55
2023/04/29 11:32:47;;;;;;;;;;;;;;;19.65;32.93;100207.55;104081;278;94914;-55
2023/04/29 11:35:19;;;;;;;;;;;;;;;19.66;32.63;100205.30;104516;278;96888;-54
2023/04/29 11:37:52;;;;;;;;;;;;;;;19.65;32.75;100203.09;104086;279;120895;-55
2023/04/29 11:40:25;;;;;;;;;;;;;;;19.78;33.02;100197.33;104104;279;104285;-57
2023/04/29 11:42:57;;;;;;;;;;;;;;;19.79;32.92;100206.32;104504;278;113377;-58
2023/04/29 11:45:29;;;;;;;;;;;;;;;19.88;33.23;100198.75;104137;278;93662;-58
2023/04/29 11:48:02;;;;;;;;;;;;;;;20.07;33.18;100196.36;104618;277;97407;-58
2023/04/29 11:50:35;;;;;;;;;;;;;;;20.16;33.01;100199.69;104644;277;119921;-55
2023/04/29 11:53:07;;;;;;;;;;;;;;;20.05;32.97;100201.21;104169;277;104915;-55
2023/04/29 11:55:41;;;;;;;;;;;;;;;20.02;32.91;100187.85;104116;277;114345;-58
2023/04/29 11:58:14;;;;;;;;;;;;;;;20.01;33.22;100186.86;104597;277;94336;-58
2023/04/29 12:00:47;;;;;;;;;;;;;;;20.08;33.10;100187.42;104594;277;97686;-55
2023/04/29 12:03:21;;;;;;;;;;;;;;;20.19;33.36;100181.58;104615;277;121176;-55
2023/04/29 12:05:55;;;;;;;;;;;;;;;20.29;33.10;100173.77;104130;277;104947;-58
2023/04/29 12:08:28;;;;;;;;;;;;;;;20.31;33.14;100182.13;104123;277;115109;-58
2023/04/29 12:11:01;;;;;;;;;;;;;;;20.30;32.84;100179.47;104107;277;94492;-58
2023/04/29 12:13:35;;;;;;;;;;;;;;;20.07;32.95;100182.59;104101;277;96622;-58
2023/04/29 12:16:08;;;;;;;;;;;;;;;20.01;33.25;100182.96;104138;277;119469;-58
2023/04/29 12:18:41;;;;;;;;;;;;;;;19.96;33.17;100175.98;104138;277;104479;-58
2023/04/29 12:21:13;;;;;;;;;;;;;;;19.94;33.12;100173.02;104157;277;114611;-56
2023/04/29 12:23:46;;;;;;;;;;;;;;;20.06;33.47;100167.82;104590;277;95467;-57
2023/04/29 12:26:19;;;;;;;;;;;;;;;20.25;33.40;100166.91;104149;277;96239;-55
2023/04/29 12:28:57;;;;;;;;;;;;;;;20.19;33.40;100169.77;104158;277;119938;-54
2023/04/29 12:31:35;;;;;;;;;;;;;;;20.23;33.31;100167.42;104590;277;105478;-54
2023/04/29 12:34:07;;;;;;;;;;;;;;;20.13;33.29;100171.31;104125;277;114197;-55
2023/04/29 12:36:42;;;;;;;;;;;;;;;19.98;33.34;100169.00;104620;277;94560;-55
2023/04/29 12:39:14;;;;;;;;;;;;;;;19.84;33.59;100164.66;104645;277;96913;-55
2023/04/29 12:41:47;;;;;;;;;;;;;;;19.66;33.61;100161.73;104102;277;120820;-54
2023/04/29 12:44:20;;;;;;;;;;;;;;;19.79;33.84;100160.80;104611;277;105789;-54
2023/04/29 12:46:54;;;;;;;;;;;;;;;19.86;33.76;100154.65;104098;277;114964;-58
2023/04/29 12:49:28;;;;;;;;;;;;;;;19.69;33.78;100155.80;104168;277;94806;-60
2023/04/29 12:52:01;;;;;;;;;;;;;;;19.61;33.83;100147.67;104202;277;96691;-59
2023/04/29 12:54:35;;;;;;;;;;;;;;;19.62;34.21;100152.20;104159;277;120532;-58
2023/04/29 12:57:08;;;;;;;;;;;;;;;19.65;34.02;100155.24;104153;277;104894;-57
2023/04/29 12:59:40;;;;;;;;;;;;;;;19.64;33.98;100153.92;104534;274;113342;-56
2023/04/29 13:02:12;;;;;;;;;;;;;;;19.64;34.27;100149.91;104146;278;93786;-57
2023/04/29 13:04:44;;;;;;;;;;;;;;;19.71;34.06;100141.20;104189;277;96851;-56